sensor_id;sensor_type;location;lat;lon;timestamp;P1;durP1;ratioP1;P2;durP2;ratioP2
74851;SDS011;63400;50.650;6.832;2024-01-11T00:00:14;9.05;;;4.22;;
74851;SDS011;63400;50.650;6.832;2024-01-11T00:02:39;11.32;;;3.97;;
74851;SDS011;63400;50.650;6.832;2024-01-11T00:05:05;10.57;;;4.63;;
74851;SDS011;63400;50.650;6.832;2024-01-11T00:07:31;9.40;;;3.78;;
74851;SDS011;63400;50.650;6.832;2024-01-11T00:09:57;11.60;;;4.75;;
74851;SDS011;63400;50.650;6.832;2024-01-11T00:12:22;9.48;;;3.63;;
74851;SDS011;63400;50.650;6.832;2024-01-11T00:14:48;11.30;;;4.53;;
74851;SDS011;63400;50.650;6.832;2024-01-11T00:17:13;9.77;;;4.35;;
74851;SDS011;63400;50.650;6.832;2024-01-11T00:19:39;12.85;;;4.40;;
74851;SDS011;63400;50.650;6.832;2024-01-11T00:22:04;10.23;;;4.82;;
74851;SDS011;63400;50.650;6.832;2024-01-11T00:24:31;10.43;;;5.85;;
74851;SDS011;63400;50.650;6.832;2024-01-11T00:26:56;12.70;;;4.15;;
74851;SDS011;63400;50.650;6.832;2024-01-11T00:29:21;13.38;;;4.38;;
74851;SDS011;63400;50.650;6.832;2024-01-11T00:31:47;7.55;;;3.95;;
74851;SDS011;63400;50.650;6.832;2024-01-11T00:34:12;18.08;;;6.95;;
74851;SDS011;63400;50.650;6.832;2024-01-11T00:36:37;15.15;;;3.92;;
74851;SDS011;63400;50.650;6.832;2024-01-11T00:39:03;11.70;;;4.13;;
74851;SDS011;63400;50.650;6.832;2024-01-11T00:41:29;13.85;;;4.25;;
74851;SDS011;63400;50.650;6.832;2024-01-11T00:43:55;11.55;;;5.97;;
74851;SDS011;63400;50.650;6.832;2024-01-11T00:46:20;7.57;;;4.20;;
74851;SDS011;63400;50.650;6.832;2024-01-11T00:48:46;12.77;;;5.45;;
74851;SDS011;63400;50.650;6.832;2024-01-11T00:51:11;10.45;;;4.65;;
74851;SDS011;63400;50.650;6.832;2024-01-11T00:53:36;12.10;;;4.88;;
74851;SDS011;63400;50.650;6.832;2024-01-11T00:56:02;13.35;;;4.97;;
74851;SDS011;63400;50.650;6.832;2024-01-11T00:58:28;14.38;;;4.72;;
74851;SDS011;63400;50.650;6.832;2024-01-11T01:00:53;8.77;;;4.10;;
74851;SDS011;63400;50.650;6.832;2024-01-11T01:03:19;17.77;;;5.97;;
74851;SDS011;63400;50.650;6.832;2024-01-11T01:05:45;10.98;;;4.20;;
74851;SDS011;63400;50.650;6.832;2024-01-11T01:08:11;11.23;;;6.03;;
74851;SDS011;63400;50.650;6.832;2024-01-11T01:10:37;7.57;;;2.78;;
74851;SDS011;63400;50.650;6.832;2024-01-11T01:13:02;10.63;;;3.72;;
74851;SDS011;63400;50.650;6.832;2024-01-11T01:15:28;14.20;;;4.15;;
74851;SDS011;63400;50.650;6.832;2024-01-11T01:17:53;12.00;;;4.90;;
74851;SDS011;63400;50.650;6.832;2024-01-11T01:20:19;10.98;;;5.45;;
74851;SDS011;63400;50.650;6.832;2024-01-11T01:22:44;8.93;;;3.35;;
74851;SDS011;63400;50.650;6.832;2024-01-11T01:25:09;10.25;;;3.97;;
74851;SDS011;63400;50.650;6.832;2024-01-11T01:27:35;13.73;;;4.95;;
74851;SDS011;63400;50.650;6.832;2024-01-11T01:30:00;11.23;;;4.35;;
74851;SDS011;63400;50.650;6.832;2024-01-11T01:32:25;11.70;;;5.07;;
74851;SDS011;63400;50.650;6.832;2024-01-11T01:34:51;9.48;;;3.45;;
74851;SDS011;63400;50.650;6.832;2024-01-11T01:37:16;11.10;;;3.83;;
74851;SDS011;63400;50.650;6.832;2024-01-11T01:39:42;15.15;;;5.85;;
74851;SDS011;63400;50.650;6.832;2024-01-11T01:42:07;8.63;;;3.58;;
74851;SDS011;63400;50.650;6.832;2024-01-11T01:44:33;8.57;;;4.38;;
74851;SDS011;63400;50.650;6.832;2024-01-11T01:46:58;10.70;;;3.22;;
74851;SDS011;63400;50.650;6.832;2024-01-11T01:49:24;4.45;;;3.55;;
74851;SDS011;63400;50.650;6.832;2024-01-11T01:51:50;9.75;;;3.50;;
74851;SDS011;63400;50.650;6.832;2024-01-11T01:54:16;9.48;;;3.88;;
74851;SDS011;63400;50.650;6.832;2024-01-11T01:56:42;10.73;;;3.72;;
74851;SDS011;63400;50.650;6.832;2024-01-11T01:59:07;9.75;;;4.22;;
74851;SDS011;63400;50.650;6.832;2024-01-11T02:01:33;9.00;;;3.70;;
74851;SDS011;63400;50.650;6.832;2024-01-11T02:03:59;8.15;;;3.80;;
74851;SDS011;63400;50.650;6.832;2024-01-11T02:06:25;13.13;;;4.22;;
74851;SDS011;63400;50.650;6.832;2024-01-11T02:08:53;7.32;;;3.40;;
74851;SDS011;63400;50.650;6.832;2024-01-11T02:11:20;13.00;;;4.88;;
74851;SDS011;63400;50.650;6.832;2024-01-11T02:13:46;11.25;;;4.10;;
74851;SDS011;63400;50.650;6.832;2024-01-11T02:16:12;13.27;;;6.43;;
74851;SDS011;63400;50.650;6.832;2024-01-11T02:18:38;7.18;;;3.28;;
74851;SDS011;63400;50.650;6.832;2024-01-11T02:21:04;8.68;;;3.55;;
74851;SDS011;63400;50.650;6.832;2024-01-11T02:23:32;8.10;;;3.55;;
74851;SDS011;63400;50.650;6.832;2024-01-11T02:25:57;10.20;;;4.15;;
74851;SDS011;63400;50.650;6.832;2024-01-11T02:28:23;10.95;;;3.63;;
74851;SDS011;63400;50.650;6.832;2024-01-11T02:30:48;15.15;;;4.85;;
74851;SDS011;63400;50.650;6.832;2024-01-11T02:33:14;8.98;;;3.40;;
74851;SDS011;63400;50.650;6.832;2024-01-11T02:35:41;10.05;;;4.15;;
74851;SDS011;63400;50.650;6.832;2024-01-11T02:38:07;6.32;;;3.95;;
74851;SDS011;63400;50.650;6.832;2024-01-11T02:40:33;10.80;;;3.80;;
74851;SDS011;63400;50.650;6.832;2024-01-11T02:43:06;7.03;;;4.22;;
74851;SDS011;63400;50.650;6.832;2024-01-11T02:45:35;8.15;;;3.22;;
74851;SDS011;63400;50.650;6.832;2024-01-11T02:48:01;12.23;;;3.15;;
74851;SDS011;63400;50.650;6.832;2024-01-11T02:50:26;11.40;;;5.63;;
74851;SDS011;63400;50.650;6.832;2024-01-11T02:52:53;10.38;;;3.88;;
74851;SDS011;63400;50.650;6.832;2024-01-11T02:55:18;7.95;;;4.18;;
74851;SDS011;63400;50.650;6.832;2024-01-11T02:57:44;13.82;;;5.10;;
74851;SDS011;63400;50.650;6.832;2024-01-11T03:00:09;8.50;;;3.60;;
74851;SDS011;63400;50.650;6.832;2024-01-11T03:02:36;9.73;;;3.92;;
74851;SDS011;63400;50.650;6.832;2024-01-11T03:05:03;7.43;;;3.92;;
74851;SDS011;63400;50.650;6.832;2024-01-11T03:07:28;13.02;;;4.95;;
74851;SDS011;63400;50.650;6.832;2024-01-11T03:09:55;8.65;;;4.25;;
74851;SDS011;63400;50.650;6.832;2024-01-11T03:12:21;13.02;;;5.15;;
74851;SDS011;63400;50.650;6.832;2024-01-11T03:14:47;9.93;;;4.18;;
74851;SDS011;63400;50.650;6.832;2024-01-11T03:17:12;14.50;;;5.28;;
74851;SDS011;63400;50.650;6.832;2024-01-11T03:19:41;7.03;;;3.17;;
74851;SDS011;63400;50.650;6.832;2024-01-11T03:22:06;12.82;;;5.38;;
74851;SDS011;63400;50.650;6.832;2024-01-11T03:24:32;12.85;;;5.95;;
74851;SDS011;63400;50.650;6.832;2024-01-11T03:26:57;6.80;;;2.83;;
74851;SDS011;63400;50.650;6.832;2024-01-11T03:29:23;9.02;;;3.72;;
74851;SDS011;63400;50.650;6.832;2024-01-11T03:31:48;12.77;;;4.72;;
74851;SDS011;63400;50.650;6.832;2024-01-11T03:34:14;12.15;;;4.35;;
74851;SDS011;63400;50.650;6.832;2024-01-11T03:36:39;13.65;;;4.05;;
74851;SDS011;63400;50.650;6.832;2024-01-11T03:39:05;6.28;;;2.58;;
74851;SDS011;63400;50.650;6.832;2024-01-11T03:41:31;13.15;;;5.53;;
74851;SDS011;63400;50.650;6.832;2024-01-11T03:43:56;12.60;;;4.88;;
74851;SDS011;63400;50.650;6.832;2024-01-11T03:46:21;8.23;;;2.88;;
74851;SDS011;63400;50.650;6.832;2024-01-11T03:48:47;12.40;;;5.00;;
74851;SDS011;63400;50.650;6.832;2024-01-11T03:51:13;12.90;;;5.22;;
74851;SDS011;63400;50.650;6.832;2024-01-11T03:53:38;16.88;;;4.30;;
74851;SDS011;63400;50.650;6.832;2024-01-11T03:56:04;9.80;;;4.10;;
74851;SDS011;63400;50.650;6.832;2024-01-11T03:58:29;8.32;;;3.28;;
74851;SDS011;63400;50.650;6.832;2024-01-11T04:00:55;5.68;;;3.10;;
74851;SDS011;63400;50.650;6.832;2024-01-11T04:03:20;9.30;;;4.65;;
74851;SDS011;63400;50.650;6.832;2024-01-11T04:05:46;8.48;;;3.55;;
74851;SDS011;63400;50.650;6.832;2024-01-11T04:08:16;9.68;;;4.22;;
74851;SDS011;63400;50.650;6.832;2024-01-11T04:10:42;7.47;;;4.22;;
74851;SDS011;63400;50.650;6.832;2024-01-11T04:13:07;11.57;;;4.03;;
74851;SDS011;63400;50.650;6.832;2024-01-11T04:15:33;10.48;;;4.03;;
74851;SDS011;63400;50.650;6.832;2024-01-11T04:17:58;7.28;;;2.80;;
74851;SDS011;63400;50.650;6.832;2024-01-11T04:20:23;11.50;;;4.25;;
74851;SDS011;63400;50.650;6.832;2024-01-11T04:22:49;11.43;;;5.28;;
74851;SDS011;63400;50.650;6.832;2024-01-11T04:25:15;11.15;;;4.70;;
74851;SDS011;63400;50.650;6.832;2024-01-11T04:27:40;7.40;;;2.85;;
74851;SDS011;63400;50.650;6.832;2024-01-11T04:30:06;7.72;;;2.78;;
74851;SDS011;63400;50.650;6.832;2024-01-11T04:32:32;11.63;;;5.22;;
74851;SDS011;63400;50.650;6.832;2024-01-11T04:34:57;9.48;;;3.85;;
74851;SDS011;63400;50.650;6.832;2024-01-11T04:37:22;14.40;;;4.53;;
74851;SDS011;63400;50.650;6.832;2024-01-11T04:39:48;11.85;;;4.10;;
74851;SDS011;63400;50.650;6.832;2024-01-11T04:42:14;10.30;;;3.63;;
74851;SDS011;63400;50.650;6.832;2024-01-11T04:44:39;11.63;;;5.30;;
74851;SDS011;63400;50.650;6.832;2024-01-11T04:47:05;11.55;;;5.35;;
74851;SDS011;63400;50.650;6.832;2024-01-11T04:49:30;8.73;;;2.67;;
74851;SDS011;63400;50.650;6.832;2024-01-11T04:51:55;10.70;;;5.88;;
74851;SDS011;63400;50.650;6.832;2024-01-11T04:54:21;11.10;;;3.72;;
74851;SDS011;63400;50.650;6.832;2024-01-11T04:56:46;13.48;;;4.93;;
74851;SDS011;63400;50.650;6.832;2024-01-11T04:59:11;17.35;;;5.80;;
74851;SDS011;63400;50.650;6.832;2024-01-11T05:01:37;8.23;;;3.33;;
74851;SDS011;63400;50.650;6.832;2024-01-11T05:04:02;10.88;;;4.63;;
74851;SDS011;63400;50.650;6.832;2024-01-11T05:06:28;9.07;;;3.78;;
74851;SDS011;63400;50.650;6.832;2024-01-11T05:08:54;11.50;;;3.40;;
74851;SDS011;63400;50.650;6.832;2024-01-11T05:11:23;9.57;;;3.25;;
74851;SDS011;63400;50.650;6.832;2024-01-11T05:13:49;9.73;;;4.25;;
74851;SDS011;63400;50.650;6.832;2024-01-11T05:16:19;9.50;;;3.25;;
74851;SDS011;63400;50.650;6.832;2024-01-11T05:18:47;19.63;;;5.95;;
74851;SDS011;63400;50.650;6.832;2024-01-11T05:21:13;10.13;;;4.40;;
74851;SDS011;63400;50.650;6.832;2024-01-11T05:23:40;14.77;;;3.78;;
74851;SDS011;63400;50.650;6.832;2024-01-11T05:26:06;9.93;;;4.88;;
74851;SDS011;63400;50.650;6.832;2024-01-11T05:28:32;6.68;;;3.83;;
74851;SDS011;63400;50.650;6.832;2024-01-11T05:30:58;7.72;;;3.45;;
74851;SDS011;63400;50.650;6.832;2024-01-11T05:33:25;16.35;;;5.22;;
74851;SDS011;63400;50.650;6.832;2024-01-11T05:35:51;11.82;;;3.35;;
74851;SDS011;63400;50.650;6.832;2024-01-11T05:38:18;7.53;;;3.47;;
74851;SDS011;63400;50.650;6.832;2024-01-11T05:40:44;10.23;;;4.50;;
74851;SDS011;63400;50.650;6.832;2024-01-11T05:43:09;9.05;;;2.53;;
74851;SDS011;63400;50.650;6.832;2024-01-11T05:45:35;10.38;;;4.10;;
74851;SDS011;63400;50.650;6.832;2024-01-11T05:48:01;8.43;;;3.00;;
74851;SDS011;63400;50.650;6.832;2024-01-11T05:50:26;5.22;;;3.50;;
74851;SDS011;63400;50.650;6.832;2024-01-11T05:52:52;9.07;;;3.78;;
74851;SDS011;63400;50.650;6.832;2024-01-11T05:55:18;7.25;;;3.88;;
74851;SDS011;63400;50.650;6.832;2024-01-11T05:57:44;9.02;;;3.35;;
74851;SDS011;63400;50.650;6.832;2024-01-11T06:00:10;7.03;;;3.60;;
74851;SDS011;63400;50.650;6.832;2024-01-11T06:02:37;8.75;;;3.15;;
74851;SDS011;63400;50.650;6.832;2024-01-11T06:05:02;10.73;;;4.07;;
74851;SDS011;63400;50.650;6.832;2024-01-11T06:07:28;10.93;;;3.53;;
74851;SDS011;63400;50.650;6.832;2024-01-11T06:09:54;9.00;;;4.60;;
74851;SDS011;63400;50.650;6.832;2024-01-11T06:12:19;8.02;;;3.38;;
74851;SDS011;63400;50.650;6.832;2024-01-11T06:14:45;10.45;;;3.40;;
74851;SDS011;63400;50.650;6.832;2024-01-11T06:17:11;9.70;;;3.65;;
74851;SDS011;63400;50.650;6.832;2024-01-11T06:19:37;10.90;;;4.25;;
74851;SDS011;63400;50.650;6.832;2024-01-11T06:22:03;8.15;;;4.60;;
74851;SDS011;63400;50.650;6.832;2024-01-11T06:24:30;8.35;;;4.78;;
74851;SDS011;63400;50.650;6.832;2024-01-11T06:26:56;13.48;;;5.43;;
74851;SDS011;63400;50.650;6.832;2024-01-11T06:29:21;8.35;;;4.28;;
74851;SDS011;63400;50.650;6.832;2024-01-11T06:31:47;11.35;;;3.75;;
74851;SDS011;63400;50.650;6.832;2024-01-11T06:34:12;13.65;;;5.03;;
74851;SDS011;63400;50.650;6.832;2024-01-11T06:36:40;13.00;;;2.13;;
74851;SDS011;63400;50.650;6.832;2024-01-11T06:39:05;9.13;;;3.70;;
74851;SDS011;63400;50.650;6.832;2024-01-11T06:41:31;5.70;;;3.42;;
74851;SDS011;63400;50.650;6.832;2024-01-11T06:43:56;8.68;;;3.25;;
74851;SDS011;63400;50.650;6.832;2024-01-11T06:46:23;7.13;;;2.60;;
74851;SDS011;63400;50.650;6.832;2024-01-11T06:48:48;10.85;;;2.80;;
74851;SDS011;63400;50.650;6.832;2024-01-11T06:51:20;5.38;;;3.63;;
74851;SDS011;63400;50.650;6.832;2024-01-11T06:53:49;7.45;;;3.17;;
74851;SDS011;63400;50.650;6.832;2024-01-11T06:56:15;8.07;;;3.50;;
74851;SDS011;63400;50.650;6.832;2024-01-11T06:58:41;10.25;;;3.97;;
74851;SDS011;63400;50.650;6.832;2024-01-11T07:01:13;11.45;;;4.20;;
74851;SDS011;63400;50.650;6.832;2024-01-11T07:03:39;6.30;;;2.50;;
74851;SDS011;63400;50.650;6.832;2024-01-11T07:06:04;10.35;;;4.45;;
74851;SDS011;63400;50.650;6.832;2024-01-11T07:08:30;18.10;;;6.28;;
74851;SDS011;63400;50.650;6.832;2024-01-11T07:11:03;9.57;;;3.20;;
74851;SDS011;63400;50.650;6.832;2024-01-11T07:13:29;5.78;;;4.18;;
74851;SDS011;63400;50.650;6.832;2024-01-11T07:15:56;11.23;;;4.72;;
74851;SDS011;63400;50.650;6.832;2024-01-11T07:18:24;17.05;;;6.07;;
74851;SDS011;63400;50.650;6.832;2024-01-11T07:20:53;11.32;;;4.50;;
74851;SDS011;63400;50.650;6.832;2024-01-11T07:23:20;9.68;;;5.07;;
74851;SDS011;63400;50.650;6.832;2024-01-11T07:25:46;11.23;;;5.18;;
74851;SDS011;63400;50.650;6.832;2024-01-11T07:28:12;9.70;;;3.45;;
74851;SDS011;63400;50.650;6.832;2024-01-11T07:30:38;14.00;;;6.60;;
74851;SDS011;63400;50.650;6.832;2024-01-11T07:33:11;10.40;;;5.00;;
74851;SDS011;63400;50.650;6.832;2024-01-11T07:35:37;10.20;;;4.20;;
74851;SDS011;63400;50.650;6.832;2024-01-11T07:38:03;22.65;;;3.17;;
74851;SDS011;63400;50.650;6.832;2024-01-11T07:40:29;7.20;;;3.25;;
74851;SDS011;63400;50.650;6.832;2024-01-11T07:42:54;13.70;;;4.88;;
74851;SDS011;63400;50.650;6.832;2024-01-11T07:45:20;10.50;;;4.32;;
74851;SDS011;63400;50.650;6.832;2024-01-11T07:47:45;17.60;;;7.28;;
74851;SDS011;63400;50.650;6.832;2024-01-11T07:50:12;14.70;;;6.53;;
74851;SDS011;63400;50.650;6.832;2024-01-11T07:52:38;12.68;;;5.72;;
74851;SDS011;63400;50.650;6.832;2024-01-11T07:55:16;11.20;;;5.80;;
74851;SDS011;63400;50.650;6.832;2024-01-11T07:57:42;10.00;;;7.32;;
74851;SDS011;63400;50.650;6.832;2024-01-11T08:00:08;13.10;;;5.47;;
74851;SDS011;63400;50.650;6.832;2024-01-11T08:02:34;10.93;;;4.55;;
74851;SDS011;63400;50.650;6.832;2024-01-11T08:05:00;13.10;;;6.30;;
74851;SDS011;63400;50.650;6.832;2024-01-11T08:07:29;13.35;;;5.05;;
74851;SDS011;63400;50.650;6.832;2024-01-11T08:09:55;13.77;;;5.70;;
74851;SDS011;63400;50.650;6.832;2024-01-11T08:12:21;16.67;;;5.60;;
74851;SDS011;63400;50.650;6.832;2024-01-11T08:14:47;17.70;;;5.80;;
74851;SDS011;63400;50.650;6.832;2024-01-11T08:17:13;15.02;;;7.63;;
74851;SDS011;63400;50.650;6.832;2024-01-11T08:19:39;15.73;;;8.15;;
74851;SDS011;63400;50.650;6.832;2024-01-11T08:22:07;26.58;;;11.30;;
74851;SDS011;63400;50.650;6.832;2024-01-11T08:24:34;24.02;;;8.77;;
74851;SDS011;63400;50.650;6.832;2024-01-11T08:27:00;20.55;;;10.88;;
74851;SDS011;63400;50.650;6.832;2024-01-11T08:29:26;23.38;;;11.02;;
74851;SDS011;63400;50.650;6.832;2024-01-11T08:31:53;32.35;;;12.07;;
74851;SDS011;63400;50.650;6.832;2024-01-11T08:34:20;16.40;;;8.75;;
74851;SDS011;63400;50.650;6.832;2024-01-11T08:36:46;24.35;;;10.38;;
74851;SDS011;63400;50.650;6.832;2024-01-11T08:39:15;21.50;;;8.52;;
74851;SDS011;63400;50.650;6.832;2024-01-11T08:41:41;23.15;;;10.38;;
74851;SDS011;63400;50.650;6.832;2024-01-11T08:44:07;24.30;;;9.18;;
74851;SDS011;63400;50.650;6.832;2024-01-11T08:46:33;22.65;;;8.52;;
74851;SDS011;63400;50.650;6.832;2024-01-11T08:48:59;23.85;;;8.65;;
74851;SDS011;63400;50.650;6.832;2024-01-11T08:51:26;18.35;;;7.68;;
74851;SDS011;63400;50.650;6.832;2024-01-11T08:53:51;21.23;;;7.97;;
74851;SDS011;63400;50.650;6.832;2024-01-11T08:56:18;20.15;;;8.82;;
74851;SDS011;63400;50.650;6.832;2024-01-11T08:58:43;21.00;;;8.05;;
74851;SDS011;63400;50.650;6.832;2024-01-11T09:01:09;21.17;;;8.63;;
74851;SDS011;63400;50.650;6.832;2024-01-11T09:03:35;19.63;;;9.18;;
74851;SDS011;63400;50.650;6.832;2024-01-11T09:06:00;19.17;;;8.30;;
74851;SDS011;63400;50.650;6.832;2024-01-11T09:08:27;20.30;;;8.63;;
74851;SDS011;63400;50.650;6.832;2024-01-11T09:10:56;18.65;;;7.93;;
74851;SDS011;63400;50.650;6.832;2024-01-11T09:13:23;23.70;;;9.48;;
74851;SDS011;63400;50.650;6.832;2024-01-11T09:15:48;20.13;;;8.63;;
74851;SDS011;63400;50.650;6.832;2024-01-11T09:18:14;21.77;;;9.55;;
74851;SDS011;63400;50.650;6.832;2024-01-11T09:20:42;19.48;;;8.57;;
74851;SDS011;63400;50.650;6.832;2024-01-11T09:23:07;20.80;;;9.00;;
74851;SDS011;63400;50.650;6.832;2024-01-11T09:25:33;20.15;;;8.40;;
74851;SDS011;63400;50.650;6.832;2024-01-11T09:27:58;21.73;;;8.55;;
74851;SDS011;63400;50.650;6.832;2024-01-11T09:30:24;20.48;;;9.32;;
74851;SDS011;63400;50.650;6.832;2024-01-11T09:32:50;21.83;;;8.40;;
74851;SDS011;63400;50.650;6.832;2024-01-11T09:35:15;17.98;;;7.95;;
74851;SDS011;63400;50.650;6.832;2024-01-11T09:37:41;21.50;;;8.90;;
74851;SDS011;63400;50.650;6.832;2024-01-11T09:40:07;17.10;;;7.95;;
74851;SDS011;63400;50.650;6.832;2024-01-11T09:42:39;19.83;;;10.60;;
74851;SDS011;63400;50.650;6.832;2024-01-11T09:45:07;22.10;;;10.13;;
74851;SDS011;63400;50.650;6.832;2024-01-11T09:47:35;27.02;;;11.82;;
74851;SDS011;63400;50.650;6.832;2024-01-11T09:50:04;27.95;;;12.88;;
74851;SDS011;63400;50.650;6.832;2024-01-11T09:52:31;20.85;;;9.73;;
74851;SDS011;63400;50.650;6.832;2024-01-11T09:54:57;18.13;;;9.68;;
74851;SDS011;63400;50.650;6.832;2024-01-11T09:57:29;21.40;;;8.60;;
74851;SDS011;63400;50.650;6.832;2024-01-11T09:59:55;18.75;;;8.73;;
74851;SDS011;63400;50.650;6.832;2024-01-11T10:02:25;16.70;;;8.63;;
74851;SDS011;63400;50.650;6.832;2024-01-11T10:04:54;19.65;;;9.52;;
74851;SDS011;63400;50.650;6.832;2024-01-11T10:07:23;19.90;;;9.25;;
74851;SDS011;63400;50.650;6.832;2024-01-11T10:09:50;19.83;;;8.70;;
74851;SDS011;63400;50.650;6.832;2024-01-11T10:12:18;21.92;;;9.30;;
74851;SDS011;63400;50.650;6.832;2024-01-11T10:14:49;18.02;;;8.68;;
74851;SDS011;63400;50.650;6.832;2024-01-11T10:17:16;18.48;;;8.90;;
74851;SDS011;63400;50.650;6.832;2024-01-11T10:19:42;16.02;;;8.00;;
74851;SDS011;63400;50.650;6.832;2024-01-11T10:22:08;18.02;;;8.27;;
74851;SDS011;63400;50.650;6.832;2024-01-11T10:24:37;19.95;;;8.85;;
74851;SDS011;63400;50.650;6.832;2024-01-11T10:27:04;18.77;;;8.45;;
74851;SDS011;63400;50.650;6.832;2024-01-11T10:29:34;21.85;;;9.05;;
74851;SDS011;63400;50.650;6.832;2024-01-11T10:32:05;18.20;;;8.68;;
74851;SDS011;63400;50.650;6.832;2024-01-11T10:34:30;20.80;;;8.50;;
74851;SDS011;63400;50.650;6.832;2024-01-11T10:36:56;16.20;;;7.88;;
74851;SDS011;63400;50.650;6.832;2024-01-11T10:39:25;20.23;;;8.95;;
74851;SDS011;63400;50.650;6.832;2024-01-11T10:41:52;17.67;;;8.75;;
74851;SDS011;63400;50.650;6.832;2024-01-11T10:44:25;22.17;;;9.80;;
74851;SDS011;63400;50.650;6.832;2024-01-11T10:46:54;19.85;;;9.20;;
74851;SDS011;63400;50.650;6.832;2024-01-11T10:49:22;22.08;;;9.77;;
74851;SDS011;63400;50.650;6.832;2024-01-11T10:51:58;22.45;;;9.45;;
74851;SDS011;63400;50.650;6.832;2024-01-11T10:54:25;20.52;;;10.60;;
74851;SDS011;63400;50.650;6.832;2024-01-11T10:56:52;24.20;;;10.30;;
74851;SDS011;63400;50.650;6.832;2024-01-11T10:59:18;21.70;;;10.18;;
74851;SDS011;63400;50.650;6.832;2024-01-11T11:01:46;21.65;;;10.02;;
74851;SDS011;63400;50.650;6.832;2024-01-11T11:04:13;20.50;;;9.90;;
74851;SDS011;63400;50.650;6.832;2024-01-11T11:06:40;19.83;;;8.73;;
74851;SDS011;63400;50.650;6.832;2024-01-11T11:09:06;22.38;;;9.93;;
74851;SDS011;63400;50.650;6.832;2024-01-11T11:11:32;21.98;;;9.25;;
74851;SDS011;63400;50.650;6.832;2024-01-11T11:13:58;18.85;;;9.57;;
74851;SDS011;63400;50.650;6.832;2024-01-11T11:18:54;22.37;;;9.83;;
74851;SDS011;63400;50.650;6.832;2024-01-11T11:21:20;20.33;;;9.68;;
74851;SDS011;63400;50.650;6.832;2024-01-11T11:23:49;21.35;;;10.00;;
74851;SDS011;63400;50.650;6.832;2024-01-11T11:26:18;23.23;;;10.13;;
74851;SDS011;63400;50.650;6.832;2024-01-11T11:28:44;21.33;;;9.40;;
74851;SDS011;63400;50.650;6.832;2024-01-11T11:31:12;22.50;;;10.07;;
74851;SDS011;63400;50.650;6.832;2024-01-11T11:33:38;20.42;;;10.63;;
74851;SDS011;63400;50.650;6.832;2024-01-11T11:36:03;20.60;;;9.88;;
74851;SDS011;63400;50.650;6.832;2024-01-11T11:38:30;26.75;;;10.93;;
74851;SDS011;63400;50.650;6.832;2024-01-11T11:40:56;25.95;;;10.95;;
74851;SDS011;63400;50.650;6.832;2024-01-11T11:43:23;23.13;;;9.57;;
74851;SDS011;63400;50.650;6.832;2024-01-11T11:45:49;25.92;;;10.73;;
74851;SDS011;63400;50.650;6.832;2024-01-11T11:51:14;25.42;;;10.73;;
74851;SDS011;63400;50.650;6.832;2024-01-11T11:53:42;24.88;;;12.27;;
74851;SDS011;63400;50.650;6.832;2024-01-11T11:56:08;25.30;;;10.93;;
74851;SDS011;63400;50.650;6.832;2024-01-11T11:58:35;23.02;;;9.93;;
74851;SDS011;63400;50.650;6.832;2024-01-11T12:01:01;26.33;;;10.73;;
74851;SDS011;63400;50.650;6.832;2024-01-11T12:03:36;37.78;;;12.23;;
74851;SDS011;63400;50.650;6.832;2024-01-11T12:06:15;28.13;;;11.88;;
74851;SDS011;63400;50.650;6.832;2024-01-11T12:08:42;28.02;;;12.60;;
74851;SDS011;63400;50.650;6.832;2024-01-11T12:11:08;29.42;;;11.90;;
74851;SDS011;63400;50.650;6.832;2024-01-11T12:13:34;23.25;;;11.45;;
74851;SDS011;63400;50.650;6.832;2024-01-11T12:16:00;28.38;;;11.43;;
74851;SDS011;63400;50.650;6.832;2024-01-11T12:18:25;25.20;;;10.90;;
74851;SDS011;63400;50.650;6.832;2024-01-11T12:20:50;25.75;;;11.75;;
74851;SDS011;63400;50.650;6.832;2024-01-11T12:23:18;29.33;;;11.65;;
74851;SDS011;63400;50.650;6.832;2024-01-11T12:25:43;27.98;;;12.18;;
74851;SDS011;63400;50.650;6.832;2024-01-11T12:28:09;27.70;;;10.60;;
74851;SDS011;63400;50.650;6.832;2024-01-11T12:30:35;26.33;;;10.70;;
74851;SDS011;63400;50.650;6.832;2024-01-11T12:33:00;32.47;;;12.55;;
74851;SDS011;63400;50.650;6.832;2024-01-11T12:35:27;27.20;;;11.10;;
74851;SDS011;63400;50.650;6.832;2024-01-11T12:37:59;22.83;;;10.75;;
74851;SDS011;63400;50.650;6.832;2024-01-11T12:40:25;29.33;;;13.43;;
74851;SDS011;63400;50.650;6.832;2024-01-11T12:42:52;29.13;;;11.05;;
74851;SDS011;63400;50.650;6.832;2024-01-11T12:45:18;30.00;;;12.23;;
74851;SDS011;63400;50.650;6.832;2024-01-11T12:47:43;25.20;;;11.63;;
74851;SDS011;63400;50.650;6.832;2024-01-11T12:50:09;27.10;;;11.38;;
74851;SDS011;63400;50.650;6.832;2024-01-11T12:52:36;27.38;;;11.85;;
74851;SDS011;63400;50.650;6.832;2024-01-11T12:55:01;25.27;;;10.57;;
74851;SDS011;63400;50.650;6.832;2024-01-11T12:57:26;27.83;;;12.35;;
74851;SDS011;63400;50.650;6.832;2024-01-11T12:59:52;24.00;;;11.13;;
74851;SDS011;63400;50.650;6.832;2024-01-11T13:02:18;23.40;;;10.75;;
74851;SDS011;63400;50.650;6.832;2024-01-11T13:04:45;22.30;;;10.93;;
74851;SDS011;63400;50.650;6.832;2024-01-11T13:07:11;25.38;;;11.77;;
74851;SDS011;63400;50.650;6.832;2024-01-11T13:09:37;37.85;;;11.95;;
74851;SDS011;63400;50.650;6.832;2024-01-11T13:12:03;30.15;;;10.93;;
74851;SDS011;63400;50.650;6.832;2024-01-11T13:14:29;28.05;;;12.02;;
74851;SDS011;63400;50.650;6.832;2024-01-11T13:16:54;30.48;;;11.95;;
74851;SDS011;63400;50.650;6.832;2024-01-11T13:19:20;29.75;;;10.98;;
74851;SDS011;63400;50.650;6.832;2024-01-11T13:21:45;27.17;;;11.82;;
74851;SDS011;63400;50.650;6.832;2024-01-11T13:24:10;25.60;;;11.68;;
74851;SDS011;63400;50.650;6.832;2024-01-11T13:26:37;26.15;;;12.00;;
74851;SDS011;63400;50.650;6.832;2024-01-11T13:29:04;30.27;;;12.38;;
74851;SDS011;63400;50.650;6.832;2024-01-11T13:31:30;32.03;;;12.40;;
74851;SDS011;63400;50.650;6.832;2024-01-11T13:33:56;30.00;;;10.48;;
74851;SDS011;63400;50.650;6.832;2024-01-11T13:36:22;27.95;;;12.77;;
74851;SDS011;63400;50.650;6.832;2024-01-11T13:38:47;27.50;;;12.80;;
74851;SDS011;63400;50.650;6.832;2024-01-11T13:41:14;27.73;;;12.35;;
74851;SDS011;63400;50.650;6.832;2024-01-11T13:43:40;29.52;;;11.45;;
74851;SDS011;63400;50.650;6.832;2024-01-11T13:46:05;27.98;;;11.43;;
74851;SDS011;63400;50.650;6.832;2024-01-11T13:48:33;26.88;;;12.30;;
74851;SDS011;63400;50.650;6.832;2024-01-11T13:50:59;28.20;;;12.00;;
74851;SDS011;63400;50.650;6.832;2024-01-11T13:53:25;29.30;;;12.38;;
74851;SDS011;63400;50.650;6.832;2024-01-11T13:55:50;27.73;;;12.82;;
74851;SDS011;63400;50.650;6.832;2024-01-11T13:58:17;26.45;;;12.65;;
74851;SDS011;63400;50.650;6.832;2024-01-11T14:00:43;26.30;;;12.15;;
74851;SDS011;63400;50.650;6.832;2024-01-11T14:03:09;25.05;;;11.55;;
74851;SDS011;63400;50.650;6.832;2024-01-11T14:05:36;25.77;;;11.27;;
74851;SDS011;63400;50.650;6.832;2024-01-11T14:08:02;29.67;;;12.15;;
74851;SDS011;63400;50.650;6.832;2024-01-11T14:10:30;29.17;;;11.00;;
74851;SDS011;63400;50.650;6.832;2024-01-11T14:12:57;24.42;;;12.13;;
74851;SDS011;63400;50.650;6.832;2024-01-11T14:15:23;24.88;;;10.65;;
74851;SDS011;63400;50.650;6.832;2024-01-11T14:17:49;30.38;;;12.88;;
74851;SDS011;63400;50.650;6.832;2024-01-11T14:20:15;25.25;;;11.05;;
74851;SDS011;63400;50.650;6.832;2024-01-11T14:22:40;27.25;;;12.38;;
74851;SDS011;63400;50.650;6.832;2024-01-11T14:25:07;35.03;;;11.77;;
74851;SDS011;63400;50.650;6.832;2024-01-11T14:27:34;27.25;;;11.98;;
74851;SDS011;63400;50.650;6.832;2024-01-11T14:29:59;28.48;;;11.00;;
74851;SDS011;63400;50.650;6.832;2024-01-11T14:32:25;31.58;;;11.05;;